Time;durP1;ratioP1;P1;durP2;ratioP2;P2;SDS_P1;SDS_P2;PMS_P1;PMS_P2;Temp;Humidity;BMP_temperature;BMP_pressure;BME280_temperature;BME280_humidity;BME280_pressure;Samples;Min_cycle;Max_cycle;Signal;HPM_P1;HPM_P2
2021/08/07 00:00:54;;;;;;;2.73;1.77;;;16.10;36.90;;;;;;4954788;28;20182;-67
2021/08/07 00:03:19;;;;;;;2.07;1.13;;;16.10;36.40;;;;;;4954180;29;20294;-67
2021/08/07 00:05:46;;;;;;;19.47;2.10;;;16.10;36.40;;;;;;4955122;28;20247;-68
2021/08/07 00:08:11;;;;;;;2.03;1.40;;;16.10;36.40;;;;;;4955000;28;20261;-67
2021/08/07 00:10:37;;;;;;;2.13;1.70;;;16.20;36.40;;;;;;4954726;28;20465;-68
2021/08/07 00:13:03;;;;;;;3.60;1.67;;;16.20;36.40;;;;;;4955237;28;20182;-67
2021/08/07 00:15:29;;;;;;;2.20;1.20;;;16.20;37.40;;;;;;4953632;29;20255;-67
2021/08/07 00:17:55;;;;;;;5.00;1.83;;;16.20;37.60;;;;;;4954895;28;20413;-67
2021/08/07 00:20:21;;;;;;;3.00;1.60;;;16.20;36.70;;;;;;4954472;28;20508;-68
2021/08/07 00:22:46;;;;;;;2.13;1.37;;;16.20;36.50;;;;;;4954687;28;20998;-68
2021/08/07 00:25:12;;;;;;;1.60;1.20;;;16.30;36.50;;;;;;4954856;28;20217;-68
2021/08/07 00:27:37;;;;;;;1.70;1.23;;;16.20;36.40;;;;;;4954613;28;20249;-68
2021/08/07 00:30:07;;;;;;;2.17;1.70;;;16.20;36.50;;;;;;4954300;28;20601;-68
2021/08/07 00:32:32;;;;;;;1.50;1.10;;;16.20;36.40;;;;;;4954542;28;20174;-67
2021/08/07 00:34:58;;;;;;;1.60;1.27;;;16.30;36.60;;;;;;4954281;28;20905;-69
2021/08/07 00:37:25;;;;;;;2.07;1.40;;;16.30;36.60;;;;;;4954326;28;20175;-67
2021/08/07 00:39:51;;;;;;;1.57;1.10;;;16.30;36.50;;;;;;4954545;28;20205;-68
2021/08/07 00:42:17;;;;;;;2.40;1.20;;;16.30;36.50;;;;;;4954361;28;20856;-67
2021/08/07 00:44:43;;;;;;;1.90;1.13;;;16.30;36.70;;;;;;4954146;28;20496;-67
2021/08/07 00:47:08;;;;;;;2.80;1.83;;;16.30;36.60;;;;;;4954240;28;20189;-69
2021/08/07 00:49:35;;;;;;;2.33;1.50;;;16.40;36.70;;;;;;4953917;28;20441;-68
2021/08/07 00:52:01;;;;;;;4.03;1.33;;;16.40;36.60;;;;;;4952767;29;20684;-68
2021/08/07 00:54:26;;;;;;;2.17;1.50;;;16.40;36.30;;;;;;4954071;28;20445;-68
2021/08/07 00:56:52;;;;;;;1.93;1.60;;;16.30;35.90;;;;;;4954011;28;20406;-68
2021/08/07 00:59:17;;;;;;;2.60;1.67;;;16.40;36.50;;;;;;4953801;28;20308;-67
2021/08/07 01:01:45;;;;;;;3.70;1.90;;;16.30;35.90;;;;;;4954101;28;20313;-67
2021/08/07 01:04:19;;;;;;;2.97;1.43;;;16.40;36.50;;;;;;4953384;28;20202;-68
2021/08/07 01:07:13;;;;;;;2.10;1.70;;;16.40;35.80;;;;;;4954373;28;20493;-68
2021/08/07 01:10:04;;;;;;;2.00;1.10;;;16.50;35.80;;;;;;4953833;28;20577;-67
2021/08/07 01:12:43;;;;;;;3.27;2.00;;;16.50;36.70;;;;;;4952568;29;20492;-69
2021/08/07 01:15:13;;;;;;;3.57;1.10;;;16.50;35.70;;;;;;4953913;28;20476;-67
2021/08/07 01:17:43;;;;;;;2.10;1.80;;;16.50;35.90;;;;;;4952457;29;20472;-68
2021/08/07 01:20:15;;;;;;;2.27;1.63;;;16.50;35.10;;;;;;4953534;28;20829;-68
2021/08/07 01:23:10;;;;;;;2.90;1.40;;;16.50;35.10;;;;;;4953543;28;20413;-68
2021/08/07 01:26:12;;;;;;;2.80;2.00;;;16.50;35.10;;;;;;4953616;28;20421;-67
2021/08/07 01:28:40;;;;;;;7.57;1.80;;;16.50;35.50;;;;;;4953491;28;20496;-68
2021/08/07 01:31:10;;;;;;;2.13;1.33;;;16.50;35.30;;;;;;4953350;28;20642;-68
2021/08/07 01:33:36;;;;;;;3.23;1.50;;;16.50;34.50;;;;;;4953415;28;20453;-67
2021/08/07 01:36:03;;;;;;;3.23;1.63;;;16.60;34.70;;;;;;4953327;28;20825;-68
2021/08/07 01:38:30;;;;;;;3.10;1.83;;;16.60;35.30;;;;;;4953459;28;20415;-67
2021/08/07 01:40:55;;;;;;;2.50;1.37;;;16.50;35.40;;;;;;4953072;28;20629;-68
2021/08/07 01:43:21;;;;;;;2.07;1.37;;;16.50;35.30;;;;;;4953349;28;20878;-69
2021/08/07 01:45:47;;;;;;;2.60;1.43;;;16.50;35.70;;;;;;4953233;28;20178;-69
2021/08/07 01:48:23;;;;;;;1.77;1.50;;;16.50;36.80;;;;;;4953574;28;20180;-67
2021/08/07 01:51:15;;;;;;;2.03;1.10;;;16.50;35.40;;;;;;4952929;28;20193;-67
2021/08/07 01:53:43;;;;;;;1.70;1.50;;;16.50;35.20;;;;;;4953124;28;20800;-67
2021/08/07 01:56:34;;;;;;;7.00;1.53;;;16.50;35.40;;;;;;4953117;28;20620;-67
2021/08/07 01:59:06;;;;;;;2.10;1.03;;;16.50;35.90;;;;;;4952826;28;20410;-67
2021/08/07 02:01:33;;;;;;;9.50;2.63;;;16.50;36.80;;;;;;4967826;28;20429;-68
2021/08/07 02:04:01;;;;;;;3.23;1.30;;;16.40;36.50;;;;;;4952867;28;20805;-68
2021/08/07 02:06:28;;;;;;;2.80;1.37;;;16.40;36.60;;;;;;4951591;29;20417;-67
2021/08/07 02:08:54;;;;;;;2.43;1.60;;;16.50;35.80;;;;;;4952838;28;20830;-67
2021/08/07 02:11:20;;;;;;;2.80;1.30;;;16.50;35.80;;;;;;4952737;28;20465;-67
2021/08/07 02:13:47;;;;;;;1.80;1.30;;;16.50;35.80;;;;;;4952845;28;20852;-67
2021/08/07 02:16:15;;;;;;;2.50;1.53;;;16.50;35.90;;;;;;4951253;28;20236;-67
2021/08/07 02:18:43;;;;;;;3.60;1.83;;;16.50;35.50;;;;;;4952711;28;20921;-68
2021/08/07 02:21:11;;;;;;;2.23;1.47;;;16.60;35.00;;;;;;4952739;28;20436;-67
2021/08/07 02:23:37;;;;;;;3.10;1.30;;;16.60;35.40;;;;;;4952725;28;20448;-67
2021/08/07 02:26:05;;;;;;;1.60;1.10;;;16.60;34.70;;;;;;4952662;28;20990;-67
2021/08/07 02:28:31;;;;;;;2.20;1.53;;;16.60;33.90;;;;;;4952857;28;20409;-67
2021/08/07 02:30:59;;;;;;;1.93;1.40;;;16.60;34.20;;;;;;4952219;28;20553;-68
2021/08/07 02:33:26;;;;;;;2.77;1.47;;;16.60;34.30;;;;;;4953124;28;20540;-67
2021/08/07 02:35:54;;;;;;;3.73;1.73;;;16.60;34.40;;;;;;4952546;28;20915;-68
2021/08/07 02:38:22;;;;;;;2.37;1.20;;;16.60;34.90;;;;;;4952656;28;20410;-68
2021/08/07 02:40:47;;;;;;;3.90;1.50;;;16.60;34.30;;;;;;4952408;28;20452;-66
2021/08/07 02:43:15;;;;;;;2.37;1.47;;;16.60;34.50;;;;;;4953042;28;20465;-67
2021/08/07 02:45:41;;;;;;;2.07;1.33;;;16.70;35.40;;;;;;4952542;28;20178;-68
2021/08/07 02:48:07;;;;;;;1.80;1.20;;;16.60;35.50;;;;;;4951263;29;21010;-67
2021/08/07 02:50:34;;;;;;;1.80;1.50;;;16.70;34.30;;;;;;4952136;28;20975;-69
2021/08/07 02:53:01;;;;;;;1.47;1.07;;;16.70;35.40;;;;;;4952680;28;20418;-67
2021/08/07 02:55:26;;;;;;;2.70;2.30;;;16.70;34.30;;;;;;4952748;28;20911;-68
2021/08/07 02:57:53;;;;;;;4.03;2.00;;;16.60;34.50;;;;;;4952811;28;20464;-67
2021/08/07 03:00:19;;;;;;;2.83;1.47;;;16.70;35.50;;;;;;4952376;28;20186;-67
2021/08/07 03:02:46;;;;;;;3.67;1.57;;;16.70;36.80;;;;;;4952456;28;20429;-67
2021/08/07 03:05:12;;;;;;;2.20;1.63;;;16.70;35.40;;;;;;4952273;28;20528;-67
2021/08/07 03:07:38;;;;;;;2.40;1.37;;;16.70;34.10;;;;;;4951403;29;20460;-68
2021/08/07 03:10:08;;;;;;;3.50;1.47;;;16.70;34.80;;;;;;4952373;28;20413;-67
2021/08/07 03:12:35;;;;;;;1.97;1.23;;;16.70;34.00;;;;;;4952208;28;20549;-67
2021/08/07 03:15:01;;;;;;;3.70;1.97;;;16.70;34.80;;;;;;4952231;28;20433;-67
2021/08/07 03:17:27;;;;;;;2.60;1.20;;;16.70;34.40;;;;;;4951220;29;20480;-67
2021/08/07 03:19:53;;;;;;;2.10;1.67;;;16.70;34.10;;;;;;4952037;28;20417;-68
2021/08/07 03:22:18;;;;;;;2.53;1.17;;;16.70;34.00;;;;;;4952341;28;20179;-67
2021/08/07 03:24:45;;;;;;;2.10;1.50;;;16.70;33.30;;;;;;4952253;28;20234;-67
2021/08/07 03:27:11;;;;;;;2.50;1.90;;;16.60;33.40;;;;;;4952256;28;20600;-68
2021/08/07 03:29:36;;;;;;;2.40;1.63;;;16.60;33.90;;;;;;4955252;28;20513;-67
2021/08/07 03:32:02;;;;;;;2.00;1.37;;;16.60;34.40;;;;;;4955664;28;20206;-67
2021/08/07 03:34:28;;;;;;;4.33;1.53;;;16.60;36.20;;;;;;4955455;28;20629;-67
2021/08/07 03:36:53;;;;;;;2.13;1.23;;;16.60;35.10;;;;;;4955605;28;20476;-67
2021/08/07 03:39:19;;;;;;;2.10;1.13;;;16.50;35.30;;;;;;4955348;28;20259;-67
2021/08/07 03:41:44;;;;;;;2.00;1.67;;;16.50;36.30;;;;;;4954306;29;20468;-67
2021/08/07 03:44:10;;;;;;;2.90;1.70;;;16.50;36.70;;;;;;4955471;28;20193;-67
2021/08/07 03:46:35;;;;;;;1.80;0.97;;;16.50;36.80;;;;;;4955773;29;20758;-67
2021/08/07 03:49:01;;;;;;;2.10;1.43;;;16.50;38.20;;;;;;4954856;28;20546;-66
2021/08/07 03:51:27;;;;;;;4.37;1.87;;;16.40;37.40;;;;;;4955203;28;20208;-67
2021/08/07 03:53:52;;;;;;;3.30;1.63;;;16.40;36.70;;;;;;4953883;29;20579;-67
2021/08/07 03:56:18;;;;;;;3.43;2.43;;;16.40;36.60;;;;;;4955196;28;20174;-67
2021/08/07 03:58:43;;;;;;;2.30;1.77;;;16.30;36.50;;;;;;4955086;28;20185;-67
2021/08/07 04:01:09;;;;;;;3.97;2.00;;;16.30;37.30;;;;;;4955138;28;20185;-67
2021/08/07 04:03:35;;;;;;;2.90;1.87;;;16.30;37.10;;;;;;4954968;28;20202;-67
2021/08/07 04:06:00;;;;;;;6.30;2.07;;;16.30;37.40;;;;;;4955081;28;20375;-67
2021/08/07 04:08:27;;;;;;;3.50;1.90;;;16.30;37.00;;;;;;4954820;28;20585;-67
2021/08/07 04:10:52;;;;;;;5.57;1.87;;;16.20;37.10;;;;;;4954468;28;20202;-67
2021/08/07 04:13:18;;;;;;;1.80;1.50;;;16.10;37.90;;;;;;4953686;28;20496;-67
2021/08/07 04:15:43;;;;;;;2.77;2.00;;;16.10;38.30;;;;;;4954205;28;20185;-67
2021/08/07 04:18:09;;;;;;;2.60;1.73;;;16.10;38.40;;;;;;4954020;28;20185;-67
2021/08/07 04:20:34;;;;;;;4.40;2.10;;;16.10;39.00;;;;;;4954371;28;20256;-68
2021/08/07 04:23:00;;;;;;;3.77;2.27;;;16.00;38.30;;;;;;4954910;28;20644;-67
2021/08/07 04:25:26;;;;;;;2.07;1.53;;;16.00;38.30;;;;;;4954746;28;20182;-66
2021/08/07 04:27:51;;;;;;;2.60;1.90;;;16.00;38.70;;;;;;4954707;29;20221;-67
2021/08/07 04:30:17;;;;;;;3.13;2.30;;;16.00;38.90;;;;;;4954448;28;20202;-67
2021/08/07 04:32:42;;;;;;;2.30;1.83;;;16.10;39.80;;;;;;4954476;28;20710;-67
2021/08/07 04:35:09;;;;;;;4.77;2.27;;;16.10;40.60;;;;;;4954546;28;20213;-68
2021/08/07 04:37:53;;;;;;;2.43;1.90;;;16.10;40.40;;;;;;4954833;28;20184;-68
2021/08/07 04:40:20;;;;;;;2.50;1.30;;;16.10;40.30;;;;;;4954110;28;20430;-68
2021/08/07 04:42:46;;;;;;;2.40;2.10;;;16.10;40.30;;;;;;4954711;28;20449;-67
2021/08/07 04:45:12;;;;;;;6.80;2.40;;;16.10;40.00;;;;;;4954391;28;20471;-66
2021/08/07 04:47:50;;;;;;;3.30;2.17;;;16.10;40.10;;;;;;4954294;28;20232;-68
2021/08/07 04:50:16;;;;;;;2.43;2.10;;;16.10;40.10;;;;;;4953944;28;20457;-68
2021/08/07 04:52:41;;;;;;;3.37;2.70;;;16.00;40.10;;;;;;4954511;28;20915;-68
2021/08/07 04:55:07;;;;;;;3.67;2.10;;;16.10;41.40;;;;;;4954107;28;20201;-68
2021/08/07 04:57:33;;;;;;;4.70;2.63;;;16.10;40.80;;;;;;4954063;28;20178;-69
2021/08/07 04:59:58;;;;;;;3.80;2.43;;;16.20;39.90;;;;;;4953870;28;20178;-68
2021/08/07 05:02:24;;;;;;;3.80;2.33;;;16.20;39.60;;;;;;4952775;29;20648;-68
2021/08/07 05:04:49;;;;;;;4.70;2.27;;;16.10;40.30;;;;;;4953928;28;20197;-68
2021/08/07 05:07:15;;;;;;;5.93;2.87;;;16.10;40.20;;;;;;4953923;28;20351;-69
2021/08/07 05:09:40;;;;;;;6.23;2.33;;;16.10;40.10;;;;;;4952503;29;20189;-69
2021/08/07 05:12:06;;;;;;;4.27;3.30;;;16.10;40.00;;;;;;4953706;28;20209;-68
2021/08/07 05:14:31;;;;;;;3.07;2.53;;;16.10;40.00;;;;;;4953948;28;20285;-68
2021/08/07 05:16:57;;;;;;;2.50;1.83;;;16.10;40.50;;;;;;4953714;28;20667;-70
2021/08/07 05:19:22;;;;;;;3.30;2.83;;;16.20;40.50;;;;;;4953907;28;20182;-68
2021/08/07 05:21:48;;;;;;;3.00;2.03;;;16.30;41.10;;;;;;4953791;28;20182;-68
2021/08/07 05:24:13;;;;;;;4.17;2.63;;;16.40;40.70;;;;;;4968283;28;20219;-68
2021/08/07 05:26:39;;;;;;;4.73;2.87;;;16.80;40.30;;;;;;4953595;28;20177;-68
2021/08/07 05:29:04;;;;;;;3.00;2.17;;;17.00;39.30;;;;;;4953457;28;20651;-68
2021/08/07 05:31:30;;;;;;;3.13;2.40;;;18.50;34.00;;;;;;4953444;28;20276;-69
2021/08/07 05:33:55;;;;;;;3.67;2.33;;;18.90;31.30;;;;;;4953348;28;20229;-71
2021/08/07 05:36:21;;;;;;;4.53;2.73;;;19.30;30.00;;;;;;4953458;28;20550;-70
2021/08/07 05:38:46;;;;;;;5.60;2.00;;;19.90;29.40;;;;;;4953283;28;20643;-69
2021/08/07 05:41:12;;;;;;;4.10;2.60;;;20.50;27.20;;;;;;4953487;28;20213;-70
2021/08/07 05:43:38;;;;;;;3.57;2.70;;;20.60;26.10;;;;;;4953208;28;20201;-69
2021/08/07 05:46:03;;;;;;;3.20;2.70;;;20.50;25.60;;;;;;4953188;28;20178;-68
2021/08/07 05:48:31;;;;;;;3.80;3.10;;;20.10;26.40;;;;;;4951962;29;20197;-68
2021/08/07 05:50:57;;;;;;;2.93;2.63;;;19.70;27.30;;;;;;4952515;28;20333;-69
2021/08/07 05:53:22;;;;;;;3.40;2.70;;;19.40;29.10;;;;;;4952996;28;21006;-68
2021/08/07 05:55:48;;;;;;;3.53;3.17;;;19.20;30.10;;;;;;4953059;28;20519;-70
2021/08/07 05:58:13;;;;;;;11.30;2.33;;;18.90;29.50;;;;;;4953118;28;20249;-68
2021/08/07 06:00:39;;;;;;;4.17;3.07;;;18.70;30.00;;;;;;4952720;28;20189;-69
2021/08/07 06:03:04;;;;;;;4.37;2.60;;;18.50;30.10;;;;;;4953068;28;20193;-68
2021/08/07 06:05:30;;;;;;;2.37;1.90;;;18.40;30.90;;;;;;4952955;28;20190;-69
2021/08/07 06:07:56;;;;;;;5.30;2.43;;;18.20;30.80;;;;;;4987626;28;20195;-68
2021/08/07 06:10:21;;;;;;;2.30;2.10;;;18.10;31.00;;;;;;4991354;28;20200;-69
2021/08/07 06:12:47;;;;;;;1.80;1.60;;;18.20;32.40;;;;;;4991329;28;20186;-68
2021/08/07 06:15:12;;;;;;;2.70;1.90;;;18.20;31.50;;;;;;4991578;28;20196;-68
2021/08/07 06:17:39;;;;;;;2.60;2.10;;;18.20;31.40;;;;;;4991371;28;20173;-69
2021/08/07 06:20:10;;;;;;;3.07;2.10;;;18.50;31.40;;;;;;4987004;28;20296;-69
2021/08/07 06:22:36;;;;;;;15.77;2.40;;;19.40;31.00;;;;;;4994810;28;20980;-68
2021/08/07 06:25:02;;;;;;;2.90;2.60;;;20.70;29.00;;;;;;4971982;28;20467;-68
2021/08/07 06:27:28;;;;;;;4.40;2.03;;;21.80;26.50;;;;;;4972128;28;20185;-68
2021/08/07 06:29:54;;;;;;;2.97;2.77;;;22.30;22.40;;;;;;4971657;28;20417;-68
2021/08/07 06:32:19;;;;;;;4.73;3.43;;;22.20;22.40;;;;;;4972007;28;20216;-67
2021/08/07 06:34:45;;;;;;;2.80;2.50;;;22.00;22.30;;;;;;4984035;28;20247;-68
2021/08/07 06:37:10;;;;;;;3.10;2.87;;;21.80;23.50;;;;;;4991559;28;20188;-67
2021/08/07 06:39:36;;;;;;;2.47;2.27;;;21.80;22.20;;;;;;4991200;28;20192;-68
2021/08/07 06:42:02;;;;;;;3.07;2.40;;;21.80;22.10;;;;;;4991653;28;20259;-68
2021/08/07 06:44:27;;;;;;;3.87;3.57;;;21.70;22.50;;;;;;4989998;28;20211;-68
2021/08/07 06:46:53;;;;;;;3.00;2.80;;;21.60;22.50;;;;;;4976619;28;20189;-68
2021/08/07 06:49:18;;;;;;;3.07;2.80;;;21.80;22.70;;;;;;4971763;28;20185;-68
2021/08/07 06:51:44;;;;;;;2.83;2.53;;;22.10;23.00;;;;;;4971917;28;20205;-68
2021/08/07 06:54:09;;;;;;;2.90;2.57;;;22.10;23.60;;;;;;4970775;28;20212;-69
2021/08/07 06:56:35;;;;;;;3.40;3.10;;;22.30;22.50;;;;;;4967108;28;20708;-69
2021/08/07 06:59:01;;;;;;;3.70;2.60;;;22.60;23.20;;;;;;4975169;28;20328;-69
2021/08/07 07:01:26;;;;;;;3.83;3.53;;;22.90;22.30;;;;;;4986444;28;20658;-69
2021/08/07 07:03:52;;;;;;;4.60;4.30;;;23.20;21.90;;;;;;4989221;28;20201;-69
2021/08/07 07:06:17;;;;;;;3.50;3.30;;;23.30;21.00;;;;;;4991187;28;20272;-69
2021/08/07 07:08:43;;;;;;;3.80;3.33;;;23.30;20.00;;;;;;4990321;28;20192;-68
2021/08/07 07:11:08;;;;;;;3.90;3.60;;;23.20;19.70;;;;;;4978723;28;20212;-68
2021/08/07 07:13:34;;;;;;;3.93;3.73;;;23.10;20.20;;;;;;4970911;28;20288;-68
2021/08/07 07:16:01;;;;;;;4.50;4.13;;;22.90;20.30;;;;;;4961023;28;20273;-68
2021/08/07 07:18:28;;;;;;;3.87;3.67;;;22.70;21.60;;;;;;4965222;28;20189;-69
2021/08/07 07:20:53;;;;;;;5.67;3.87;;;22.50;22.70;;;;;;4969788;28;21174;-68
2021/08/07 07:23:19;;;;;;;3.47;3.20;;;22.40;22.20;;;;;;4951754;29;20449;-68
2021/08/07 07:25:44;;;;;;;3.50;3.30;;;22.30;22.50;;;;;;4987829;28;20227;-68
2021/08/07 07:28:10;;;;;;;6.37;4.20;;;22.20;21.50;;;;;;4981975;28;20280;-68
2021/08/07 07:30:36;;;;;;;5.97;3.70;;;22.20;21.20;;;;;;4971159;28;20707;-69
2021/08/07 07:33:01;;;;;;;4.17;3.77;;;22.30;21.10;;;;;;4984139;28;20185;-68
2021/08/07 07:35:27;;;;;;;4.20;4.00;;;22.30;20.50;;;;;;4964697;28;20237;-68
2021/08/07 07:37:52;;;;;;;4.80;4.37;;;22.50;19.60;;;;;;4975101;28;20186;-68
2021/08/07 07:40:18;;;;;;;4.10;3.90;;;22.70;19.40;;;;;;4974695;28;20565;-68
2021/08/07 07:42:44;;;;;;;4.30;4.00;;;22.90;19.70;;;;;;4974823;28;20182;-68
2021/08/07 07:45:10;;;;;;;4.50;4.30;;;23.00;19.60;;;;;;4982719;28;20682;-68
2021/08/07 07:47:35;;;;;;;4.87;4.60;;;23.20;19.10;;;;;;4986619;28;20205;-68
2021/08/07 07:50:01;;;;;;;5.20;4.90;;;23.50;18.80;;;;;;4974530;28;20428;-68
2021/08/07 07:52:26;;;;;;;6.37;5.83;;;23.50;17.80;;;;;;4974740;28;20193;-68
2021/08/07 07:54:52;;;;;;;5.47;5.20;;;23.50;17.70;;;;;;4974897;28;20554;-68
2021/08/07 07:57:20;;;;;;;5.43;4.97;;;23.40;17.40;;;;;;4986024;28;20185;-68
2021/08/07 07:59:46;;;;;;;5.63;5.33;;;23.20;18.70;;;;;;4974391;28;20673;-68
2021/08/07 08:02:11;;;;;;;6.13;5.80;;;23.20;17.90;;;;;;4981152;28;20459;-68
2021/08/07 08:04:37;;;;;;;5.50;5.30;;;23.20;18.40;;;;;;4992298;28;20287;-68
2021/08/07 08:07:02;;;;;;;5.83;5.50;;;23.20;17.30;;;;;;4982038;28;20188;-68
2021/08/07 08:09:28;;;;;;;9.63;5.77;;;23.30;17.90;;;;;;4978545;28;20189;-68
2021/08/07 08:11:55;;;;;;;5.50;5.30;;;23.30;17.40;;;;;;4973675;28;20353;-67
2021/08/07 08:14:20;;;;;;;5.60;5.30;;;23.30;17.30;;;;;;4993526;28;20850;-68
2021/08/07 08:16:46;;;;;;;6.00;5.60;;;23.30;18.30;;;;;;4993810;28;20494;-67
2021/08/07 08:19:13;;;;;;;6.00;5.60;;;23.10;18.70;;;;;;4993502;28;20188;-68
2021/08/07 08:21:39;;;;;;;5.77;5.57;;;23.20;18.70;;;;;;4993611;28;20419;-67
2021/08/07 08:24:04;;;;;;;5.87;5.57;;;23.10;18.10;;;;;;4993539;28;20455;-68
2021/08/07 08:26:30;;;;;;;5.83;5.43;;;23.10;18.70;;;;;;4989363;28;20187;-68
2021/08/07 08:28:56;;;;;;;5.50;5.30;;;23.20;19.40;;;;;;4973858;28;20188;-68
2021/08/07 08:31:21;;;;;;;8.67;7.87;;;23.20;18.70;;;;;;4962992;28;20210;-67
2021/08/07 08:33:47;;;;;;;5.90;5.60;;;23.40;18.90;;;;;;4955131;28;20213;-69
2021/08/07 08:36:12;;;;;;;6.63;6.33;;;23.50;18.90;;;;;;4953608;29;20177;-69
2021/08/07 08:38:38;;;;;;;5.90;5.60;;;23.50;18.50;;;;;;4956982;28;20217;-69
2021/08/07 08:41:04;;;;;;;7.30;6.80;;;23.40;18.90;;;;;;4986100;28;20194;-69
2021/08/07 08:43:29;;;;;;;23.23;9.30;;;23.40;19.10;;;;;;4973979;28;20251;-68
2021/08/07 08:45:55;;;;;;;5.90;5.50;;;23.30;18.80;;;;;;4973080;28;20282;-67
2021/08/07 08:48:21;;;;;;;5.57;5.27;;;23.30;18.80;;;;;;4974014;28;20185;-67
2021/08/07 08:50:48;;;;;;;8.13;5.80;;;23.30;19.20;;;;;;4973725;28;20205;-67
2021/08/07 08:53:14;;;;;;;6.00;5.70;;;23.10;18.70;;;;;;4974404;28;20436;-67
2021/08/07 08:55:39;;;;;;;5.83;5.23;;;23.00;19.10;;;;;;4982660;28;20447;-67
2021/08/07 08:58:05;;;;;;;5.60;5.27;;;22.90;19.70;;;;;;4995679;28;20549;-67
2021/08/07 09:00:32;;;;;;;9.43;6.43;;;22.80;20.30;;;;;;4993682;28;20194;-68
2021/08/07 09:02:57;;;;;;;6.23;5.73;;;22.60;20.20;;;;;;4994623;28;20185;-68
2021/08/07 09:05:23;;;;;;;5.20;4.80;;;22.50;20.90;;;;;;4992459;28;20438;-68
2021/08/07 09:07:49;;;;;;;5.10;4.80;;;22.50;20.90;;;;;;4992860;28;20786;-68
2021/08/07 09:10:15;;;;;;;5.00;4.70;;;22.50;21.50;;;;;;4979713;28;20203;-68
2021/08/07 09:12:51;;;;;;;6.70;4.40;;;22.40;22.10;;;;;;4968709;28;20193;-68
2021/08/07 09:15:23;;;;;;;5.87;5.50;;;22.30;21.80;;;;;;4967253;28;20444;-68
2021/08/07 09:17:50;;;;;;;10.67;9.70;;;22.20;21.10;;;;;;4956181;28;20445;-69
2021/08/07 09:20:26;;;;;;;4.70;4.40;;;22.20;21.80;;;;;;4949847;28;20430;-69
2021/08/07 09:22:53;;;;;;;5.70;5.20;;;22.10;22.40;;;;;;4957255;28;20821;-68
2021/08/07 09:25:23;;;;;;;4.63;4.33;;;21.90;22.20;;;;;;4986053;28;20431;-69
2021/08/07 09:27:51;;;;;;;4.97;4.77;;;21.80;22.20;;;;;;4978038;28;20480;-70
2021/08/07 09:30:16;;;;;;;5.67;5.27;;;21.70;21.60;;;;;;4961732;28;20426;-70
2021/08/07 09:33:03;;;;;;;5.40;4.80;;;21.50;20.90;;;;;;4956904;28;20417;-72
2021/08/07 09:35:34;;;;;;;4.57;4.33;;;21.30;21.10;;;;;;4965483;28;20190;-72
2021/08/07 09:38:22;;;;;;;5.30;4.80;;;21.10;22.10;;;;;;4991233;28;20416;-72
2021/08/07 09:40:54;;;;;;;9.60;4.30;;;20.90;23.50;;;;;;4975484;28;20440;-71
2021/08/07 09:43:26;;;;;;;5.20;3.70;;;20.70;24.50;;;;;;4973979;28;20465;-72
2021/08/07 09:46:06;;;;;;;3.30;3.10;;;20.60;24.50;;;;;;4975213;28;20407;-72
2021/08/07 09:48:34;;;;;;;3.33;3.10;;;20.60;25.60;;;;;;4951081;28;20441;-72
2021/08/07 09:51:00;;;;;;;3.27;3.07;;;20.40;24.40;;;;;;4956916;29;20476;-71
2021/08/07 09:53:30;;;;;;;2.43;2.23;;;20.30;24.60;;;;;;4956285;28;20446;-71
2021/08/07 09:56:04;;;;;;;2.57;2.30;;;20.30;25.40;;;;;;4960364;28;20430;-71
2021/08/07 09:58:29;;;;;;;2.30;2.10;;;20.30;25.70;;;;;;4973971;28;20481;-72
2021/08/07 10:00:55;;;;;;;2.60;2.40;;;20.30;26.90;;;;;;4973863;28;20794;-72
2021/08/07 10:03:27;;;;;;;3.27;3.03;;;20.30;25.40;;;;;;4973770;28;20205;-71
2021/08/07 10:05:53;;;;;;;2.73;2.30;;;20.30;25.50;;;;;;4973022;28;20180;-70
2021/08/07 10:08:20;;;;;;;2.40;2.20;;;20.30;26.40;;;;;;4974750;28;20906;-70
2021/08/07 10:10:48;;;;;;;2.57;2.37;;;20.30;25.40;;;;;;4972970;28;20471;-71
2021/08/07 10:13:14;;;;;;;2.17;1.97;;;20.20;25.40;;;;;;4965753;28;20440;-70
2021/08/07 10:15:41;;;;;;;2.63;2.17;;;20.30;27.40;;;;;;4974459;28;20535;-70
2021/08/07 10:18:07;;;;;;;4.30;2.60;;;20.30;26.70;;;;;;4972511;28;20541;-70
2021/08/07 10:20:35;;;;;;;2.20;2.10;;;20.30;25.40;;;;;;4974279;28;20481;-69
2021/08/07 10:23:01;;;;;;;2.70;2.50;;;20.30;25.50;;;;;;4977913;28;20486;-70
2021/08/07 10:25:27;;;;;;;3.03;2.70;;;20.40;25.10;;;;;;4990136;28;20474;-70
2021/08/07 10:27:58;;;;;;;3.50;2.70;;;20.40;24.50;;;;;;4973049;28;20476;-70
2021/08/07 10:30:24;;;;;;;2.73;2.53;;;20.30;25.30;;;;;;4971914;28;20495;-69
2021/08/07 10:32:53;;;;;;;2.63;2.43;;;20.10;25.30;;;;;;4972264;28;20413;-70
2021/08/07 10:35:19;;;;;;;2.50;2.30;;;20.10;25.80;;;;;;4976169;28;20444;-70
2021/08/07 10:37:45;;;;;;;9.87;8.20;;;20.00;25.40;;;;;;4985265;28;20430;-70
2021/08/07 10:40:12;;;;;;;3.30;3.00;;;20.00;25.30;;;;;;4976536;28;20184;-70
2021/08/07 10:42:37;;;;;;;2.70;2.50;;;20.00;26.70;;;;;;4992592;28;20180;-70
2021/08/07 10:45:08;;;;;;;5.17;2.70;;;20.00;26.60;;;;;;4991143;28;20476;-68
2021/08/07 10:47:39;;;;;;;5.13;2.93;;;20.00;26.70;;;;;;4995929;28;20603;-69
2021/08/07 10:50:32;;;;;;;3.57;2.57;;;20.10;27.00;;;;;;4994106;28;20953;-69
2021/08/07 10:53:00;;;;;;;2.53;2.33;;;20.20;26.40;;;;;;4954213;28;21133;-67
2021/08/07 10:55:52;;;;;;;2.60;2.40;;;20.20;27.00;;;;;;4956446;28;20445;-67
2021/08/07 10:58:42;;;;;;;6.27;2.37;;;20.30;27.00;;;;;;4964630;28;20456;-67
2021/08/07 11:01:23;;;;;;;3.00;1.97;;;20.40;27.10;;;;;;4975531;28;20448;-68
2021/08/07 11:03:49;;;;;;;2.80;2.20;;;20.40;29.40;;;;;;4976132;28;20448;-68
2021/08/07 11:06:15;;;;;;;3.63;2.10;;;20.40;28.90;;;;;;4995039;28;20454;-68
2021/08/07 11:08:41;;;;;;;2.00;1.80;;;20.40;29.00;;;;;;4994984;28;20860;-68
2021/08/07 11:11:29;;;;;;;2.37;2.10;;;20.40;28.60;;;;;;4991153;28;20196;-68
2021/08/07 11:14:26;;;;;;;2.77;1.77;;;20.40;28.60;;;;;;4987120;28;20694;-68
2021/08/07 11:17:04;;;;;;;3.93;2.07;;;20.40;29.70;;;;;;4974504;28;20452;-68
2021/08/07 11:19:56;;;;;;;1.83;1.40;;;20.40;29.70;;;;;;4975313;28;20420;-68
2021/08/07 11:22:44;;;;;;;2.47;1.80;;;20.40;31.90;;;;;;4994654;28;20431;-68
2021/08/07 11:25:21;;;;;;;2.07;1.53;;;20.30;31.70;;;;;;4995083;28;20432;-67
2021/08/07 11:30:16;;;;;;;3.00;1.97;;;20.20;29.90;;;;;;4979415;28;20429;-68
2021/08/07 11:32:42;;;;;;;2.90;1.53;;;20.10;29.50;;;;;;4974574;28;20586;-68
2021/08/07 11:35:08;;;;;;;2.40;1.37;;;20.10;30.10;;;;;;4975631;28;20468;-68
2021/08/07 11:37:33;;;;;;;5.47;2.00;;;20.00;32.10;;;;;;4978341;28;20778;-68
2021/08/07 11:40:11;;;;;;;2.57;1.53;;;20.10;33.90;;;;;;4976293;28;20184;-68
2021/08/07 11:42:45;;;;;;;2.77;2.27;;;20.10;31.40;;;;;;4977630;28;20434;-67
2021/08/07 11:45:16;;;;;;;2.37;1.70;;;20.10;31.00;;;;;;4993320;28;20470;-68
2021/08/07 11:47:50;;;;;;;3.03;1.83;;;20.00;32.30;;;;;;4994459;28;20494;-68
2021/08/07 11:50:17;;;;;;;2.73;1.80;;;20.10;33.70;;;;;;4988110;28;20427;-68
2021/08/07 11:52:42;;;;;;;2.07;1.60;;;20.00;33.30;;;;;;4974905;28;20777;-68
2021/08/07 11:55:08;;;;;;;2.00;1.40;;;20.00;32.70;;;;;;4974820;28;20433;-69
2021/08/07 11:57:37;;;;;;;2.90;1.90;;;20.10;34.00;;;;;;4987097;28;20252;-69
2021/08/07 12:00:26;;;;;;;2.77;1.77;;;20.10;34.70;;;;;;4995444;28;20420;-69
2021/08/07 12:03:02;;;;;;;5.60;2.00;;;20.10;34.90;;;;;;4984600;28;20471;-69
2021/08/07 12:05:29;;;;;;;1.80;1.33;;;20.20;34.70;;;;;;4983936;28;20433;-69
2021/08/07 12:08:10;;;;;;;2.07;1.53;;;20.30;35.50;;;;;;4984280;28;20428;-69
2021/08/07 12:10:46;;;;;;;2.50;1.80;;;20.30;39.50;;;;;;4980801;28;21087;-69
2021/08/07 12:13:11;;;;;;;2.07;1.50;;;20.50;38.90;;;;;;4982196;28;20466;-69
2021/08/07 12:15:37;;;;;;;3.00;1.77;;;20.50;39.30;;;;;;4980881;28;20439;-69
2021/08/07 12:18:03;;;;;;;2.40;2.10;;;20.60;39.60;;;;;;5002965;28;20184;-69
2021/08/07 12:20:28;;;;;;;1.90;1.70;;;20.60;38.80;;;;;;4991441;28;20200;-68
2021/08/07 12:23:07;;;;;;;2.40;2.20;;;20.60;35.30;;;;;;4982440;28;20196;-69
2021/08/07 12:25:34;;;;;;;3.27;2.60;;;20.60;33.30;;;;;;4971378;28;20201;-69
2021/08/07 12:28:12;;;;;;;4.63;1.70;;;20.50;34.60;;;;;;4974098;28;20416;-69
2021/08/07 12:31:01;;;;;;;1.70;1.57;;;20.50;35.50;;;;;;4970376;28;20476;-69
2021/08/07 12:33:28;;;;;;;3.17;2.30;;;20.50;36.30;;;;;;4971620;28;21016;-69
2021/08/07 12:35:54;;;;;;;2.10;1.73;;;20.50;36.80;;;;;;4972225;28;20451;-69
2021/08/07 12:38:30;;;;;;;2.20;2.00;;;20.50;36.00;;;;;;4994075;28;20463;-69
2021/08/07 12:41:00;;;;;;;3.00;1.70;;;20.40;33.20;;;;;;4975282;28;20207;-69
2021/08/07 12:43:34;;;;;;;2.53;2.33;;;20.30;34.10;;;;;;4974802;28;20476;-69
2021/08/07 12:46:03;;;;;;;1.80;1.40;;;20.20;36.20;;;;;;4975260;28;20487;-70
2021/08/07 12:48:48;;;;;;;1.60;1.43;;;20.20;37.50;;;;;;4983666;28;20478;-69
2021/08/07 12:51:25;;;;;;;2.53;2.07;;;20.00;37.40;;;;;;4997502;28;20456;-68
2021/08/07 12:53:51;;;;;;;2.20;2.00;;;20.00;35.90;;;;;;4998256;28;20926;-68